Strona główna
METAR-TAF:

METAR-TAF

Lotnisko :

Port lotniczy Bużumbura

Bużumbura, Burundi

Szerokość geograficzna: 03-19S, Długość geograficzna: 029-19E, wysokość: 782 m

METAR: brakujący

czas: 08:18 (06:18 UTC)

Prognoza

Raport powstał 1 godzina i 18 minut temu, godzina 05:00 UTC
Prognoza ważna od 10 godzina 06 UTC do 11 godzina 12 UTC
Wiatr 10 kt od południe w porywach dochodzący do 25 kt
Widzialność 10 km lub więcej
Mało chmury na wysokości 3000 ft
Przerywane chmury na wysokości 10000 ft
Prawdopodobieństwo 30% :
Przejściowo
od 10 godzina 11 UTC do 10 godzina 16 UTC
Wiatr 10 kt od południe w porywach dochodzący do 20 kt
Widzialność 10 km lub więcej
Przerywane chmury na wysokości 8000 ft
Mało chmury na wysokości 8000 ft
Mało chmury na wysokości 3000 ft
Przerywane chmury na wysokości 10000 ft
deszcz

TAF: HBBA 100500Z 1006/1112 18010G25KT 9999 FEW030 BKN100 PROB30 TEMPO 1011/1016 7000 RA BECMG1017/1019 VRB02KT 9999 BKN080 BECMG1102/1104 36002KT 9999 FEW080 BECMG1107/1109 18010G20KT 9999 FEW030 BKN100

Obserwacja i prognoza pogody dla ponad 4000 lotnisk (raport METAR i TAF).

Dostępne stacje oznaczono żółtymi i czerwonymi punktami na mapie.

Najedź kursorem aby zobaczyć nazwę stacji.

Kliknij aby zobaczyć obserwacje i prognozy pogody.

Aby zmienić mapę: kliknij na zielony przycisk z czarnym krzyżykiem, aby powiększyć; na zielony przycisk z myślnikiem, aby pomniejszyć; na zielone strzałki, aby przejść do map sąsiednich.


METAR-TAF: